sensor_id;sensor_type;location;lat;lon;timestamp;P1;durP1;ratioP1;P2;durP2;ratioP2
22308;SDS011;11322;50.858;-1.778;2024-02-28T00:00:33;7.55;;;2.15;;
22308;SDS011;11322;50.858;-1.778;2024-02-28T00:05:33;10.75;;;2.3;;
22308;SDS011;11322;50.858;-1.778;2024-02-28T00:10:33;6.5;;;2.65;;
22308;SDS011;11322;50.858;-1.778;2024-02-28T00:15:33;10.85;;;3.45;;
22308;SDS011;11322;50.858;-1.778;2024-02-28T00:20:33;10.6;;;3.25;;
22308;SDS011;11322;50.858;-1.778;2024-02-28T00:25:33;12.85;;;3.9;;
22308;SDS011;11322;50.858;-1.778;2024-02-28T00:30:33;9.0;;;2.5;;
22308;SDS011;11322;50.858;-1.778;2024-02-28T00:35:33;16.35;;;3.4;;
22308;SDS011;11322;50.858;-1.778;2024-02-28T00:40:33;12.35;;;3.05;;
22308;SDS011;11322;50.858;-1.778;2024-02-28T00:45:33;9.9;;;3.6;;
22308;SDS011;11322;50.858;-1.778;2024-02-28T00:50:33;17.7;;;7.45;;
22308;SDS011;11322;50.858;-1.778;2024-02-28T00:55:33;10.7;;;4.95;;
22308;SDS011;11322;50.858;-1.778;2024-02-28T01:00:33;20.9;;;7.55;;
22308;SDS011;11322;50.858;-1.778;2024-02-28T01:05:33;29.65;;;6.85;;
22308;SDS011;11322;50.858;-1.778;2024-02-28T01:10:33;16.3;;;5.8;;
22308;SDS011;11322;50.858;-1.778;2024-02-28T01:15:33;21.15;;;5.85;;
22308;SDS011;11322;50.858;-1.778;2024-02-28T01:20:33;17.45;;;5.05;;
22308;SDS011;11322;50.858;-1.778;2024-02-28T01:25:33;12.85;;;3.95;;
22308;SDS011;11322;50.858;-1.778;2024-02-28T01:30:33;13.45;;;5.25;;
22308;SDS011;11322;50.858;-1.778;2024-02-28T01:35:33;8.8;;;2.6;;
22308;SDS011;11322;50.858;-1.778;2024-02-28T01:40:33;7.65;;;2.05;;
22308;SDS011;11322;50.858;-1.778;2024-02-28T01:45:33;5.25;;;2.6;;
22308;SDS011;11322;50.858;-1.778;2024-02-28T01:50:33;9.2;;;3.2;;
22308;SDS011;11322;50.858;-1.778;2024-02-28T01:55:33;11.9;;;2.9;;
22308;SDS011;11322;50.858;-1.778;2024-02-28T02:00:33;7.7;;;2.8;;
22308;SDS011;11322;50.858;-1.778;2024-02-28T02:05:33;7.2;;;3.7;;
22308;SDS011;11322;50.858;-1.778;2024-02-28T02:10:33;11.8;;;2.8;;
22308;SDS011;11322;50.858;-1.778;2024-02-28T02:15:33;6.3;;;2.35;;
22308;SDS011;11322;50.858;-1.778;2024-02-28T02:20:33;8.7;;;3.15;;
22308;SDS011;11322;50.858;-1.778;2024-02-28T02:25:33;6.25;;;2.15;;
22308;SDS011;11322;50.858;-1.778;2024-02-28T02:30:33;9.4;;;3.05;;
22308;SDS011;11322;50.858;-1.778;2024-02-28T02:35:33;7.1;;;3.2;;
22308;SDS011;11322;50.858;-1.778;2024-02-28T02:40:33;11.45;;;3.45;;
22308;SDS011;11322;50.858;-1.778;2024-02-28T02:45:33;6.45;;;2.3;;
22308;SDS011;11322;50.858;-1.778;2024-02-28T02:50:33;16.85;;;3.45;;
22308;SDS011;11322;50.858;-1.778;2024-02-28T02:55:33;16.2;;;3.9;;
22308;SDS011;11322;50.858;-1.778;2024-02-28T03:00:33;11.8;;;3.65;;
22308;SDS011;11322;50.858;-1.778;2024-02-28T03:05:33;10.65;;;3.55;;
22308;SDS011;11322;50.858;-1.778;2024-02-28T03:10:33;13.6;;;4.2;;
22308;SDS011;11322;50.858;-1.778;2024-02-28T03:15:33;9.75;;;3.1;;
22308;SDS011;11322;50.858;-1.778;2024-02-28T03:20:33;9.1;;;2.9;;
22308;SDS011;11322;50.858;-1.778;2024-02-28T03:25:33;14.8;;;4.6;;
22308;SDS011;11322;50.858;-1.778;2024-02-28T03:35:33;12.4;;;4.25;;
22308;SDS011;11322;50.858;-1.778;2024-02-28T03:40:33;9.7;;;3.25;;
22308;SDS011;11322;50.858;-1.778;2024-02-28T03:45:36;15.15;;;4.0;;
22308;SDS011;11322;50.858;-1.778;2024-02-28T03:50:33;12.05;;;4.45;;
22308;SDS011;11322;50.858;-1.778;2024-02-28T03:55:33;10.1;;;4.3;;
22308;SDS011;11322;50.858;-1.778;2024-02-28T04:00:33;9.05;;;3.5;;
22308;SDS011;11322;50.858;-1.778;2024-02-28T04:05:33;11.4;;;3.5;;
22308;SDS011;11322;50.858;-1.778;2024-02-28T04:10:33;10.05;;;2.75;;
22308;SDS011;11322;50.858;-1.778;2024-02-28T04:15:33;10.05;;;2.55;;
22308;SDS011;11322;50.858;-1.778;2024-02-28T04:20:33;6.9;;;2.7;;
22308;SDS011;11322;50.858;-1.778;2024-02-28T04:25:33;11.7;;;3.5;;
22308;SDS011;11322;50.858;-1.778;2024-02-28T04:30:33;8.4;;;3.0;;
22308;SDS011;11322;50.858;-1.778;2024-02-28T04:35:33;10.75;;;3.25;;
22308;SDS011;11322;50.858;-1.778;2024-02-28T04:40:33;11.8;;;3.8;;
22308;SDS011;11322;50.858;-1.778;2024-02-28T04:45:33;15.05;;;4.35;;
22308;SDS011;11322;50.858;-1.778;2024-02-28T04:50:33;13.05;;;4.2;;
22308;SDS011;11322;50.858;-1.778;2024-02-28T04:55:33;17.35;;;5.15;;
22308;SDS011;11322;50.858;-1.778;2024-02-28T05:00:33;20.45;;;4.45;;
22308;SDS011;11322;50.858;-1.778;2024-02-28T05:05:33;23.65;;;5.1;;
22308;SDS011;11322;50.858;-1.778;2024-02-28T05:10:33;25.5;;;6.0;;
22308;SDS011;11322;50.858;-1.778;2024-02-28T05:15:33;18.75;;;6.35;;
22308;SDS011;11322;50.858;-1.778;2024-02-28T05:20:33;30.9;;;7.0;;
22308;SDS011;11322;50.858;-1.778;2024-02-28T05:25:33;18.15;;;5.5;;
22308;SDS011;11322;50.858;-1.778;2024-02-28T05:30:33;12.1;;;3.9;;
22308;SDS011;11322;50.858;-1.778;2024-02-28T05:35:33;13.45;;;2.8;;
22308;SDS011;11322;50.858;-1.778;2024-02-28T05:40:33;17.45;;;3.65;;
22308;SDS011;11322;50.858;-1.778;2024-02-28T05:45:33;8.9;;;3.65;;
22308;SDS011;11322;50.858;-1.778;2024-02-28T05:50:33;9.0;;;3.3;;
22308;SDS011;11322;50.858;-1.778;2024-02-28T05:55:33;8.9;;;3.3;;
22308;SDS011;11322;50.858;-1.778;2024-02-28T06:00:34;11.1;;;3.55;;
22308;SDS011;11322;50.858;-1.778;2024-02-28T06:05:33;11.4;;;4.3;;
22308;SDS011;11322;50.858;-1.778;2024-02-28T06:10:33;16.4;;;5.3;;
22308;SDS011;11322;50.858;-1.778;2024-02-28T06:15:33;18.25;;;5.5;;
22308;SDS011;11322;50.858;-1.778;2024-02-28T06:20:33;23.6;;;7.05;;
22308;SDS011;11322;50.858;-1.778;2024-02-28T06:25:33;28.15;;;10.3;;
22308;SDS011;11322;50.858;-1.778;2024-02-28T06:30:33;32.1;;;8.8;;
22308;SDS011;11322;50.858;-1.778;2024-02-28T06:35:33;15.05;;;6.05;;
22308;SDS011;11322;50.858;-1.778;2024-02-28T06:40:33;12.2;;;4.65;;
22308;SDS011;11322;50.858;-1.778;2024-02-28T06:45:33;10.75;;;4.2;;
22308;SDS011;11322;50.858;-1.778;2024-02-28T06:50:33;6.5;;;3.1;;
22308;SDS011;11322;50.858;-1.778;2024-02-28T06:55:33;7.8;;;3.05;;
22308;SDS011;11322;50.858;-1.778;2024-02-28T07:00:33;9.25;;;3.8;;
22308;SDS011;11322;50.858;-1.778;2024-02-28T07:05:33;12.95;;;4.35;;
22308;SDS011;11322;50.858;-1.778;2024-02-28T07:10:33;8.95;;;4.45;;
22308;SDS011;11322;50.858;-1.778;2024-02-28T07:15:33;10.5;;;3.75;;
22308;SDS011;11322;50.858;-1.778;2024-02-28T07:20:37;11.55;;;4.15;;
22308;SDS011;11322;50.858;-1.778;2024-02-28T07:25:33;6.05;;;3.4;;
22308;SDS011;11322;50.858;-1.778;2024-02-28T07:30:33;7.45;;;3.4;;
22308;SDS011;11322;50.858;-1.778;2024-02-28T07:35:43;13.6;;;4.6;;
22308;SDS011;11322;50.858;-1.778;2024-02-28T07:40:33;28.8;;;8.35;;
22308;SDS011;11322;50.858;-1.778;2024-02-28T07:45:33;21.25;;;7.0;;
22308;SDS011;11322;50.858;-1.778;2024-02-28T07:50:33;13.0;;;5.55;;
22308;SDS011;11322;50.858;-1.778;2024-02-28T07:55:33;17.3;;;6.2;;
22308;SDS011;11322;50.858;-1.778;2024-02-28T08:00:33;12.8;;;5.3;;
22308;SDS011;11322;50.858;-1.778;2024-02-28T08:05:33;21.5;;;6.3;;
22308;SDS011;11322;50.858;-1.778;2024-02-28T08:10:33;16.5;;;4.85;;
22308;SDS011;11322;50.858;-1.778;2024-02-28T08:15:33;13.35;;;5.6;;
22308;SDS011;11322;50.858;-1.778;2024-02-28T08:20:33;16.2;;;5.4;;
22308;SDS011;11322;50.858;-1.778;2024-02-28T08:25:33;13.8;;;5.5;;
22308;SDS011;11322;50.858;-1.778;2024-02-28T08:30:33;9.5;;;5.0;;
22308;SDS011;11322;50.858;-1.778;2024-02-28T08:35:33;11.75;;;4.35;;
22308;SDS011;11322;50.858;-1.778;2024-02-28T08:40:33;11.5;;;5.0;;
22308;SDS011;11322;50.858;-1.778;2024-02-28T08:45:33;16.2;;;4.5;;
22308;SDS011;11322;50.858;-1.778;2024-02-28T08:50:33;9.3;;;3.95;;
22308;SDS011;11322;50.858;-1.778;2024-02-28T08:55:33;13.5;;;5.55;;
22308;SDS011;11322;50.858;-1.778;2024-02-28T09:00:33;8.55;;;4.8;;
22308;SDS011;11322;50.858;-1.778;2024-02-28T09:05:33;15.05;;;5.2;;
22308;SDS011;11322;50.858;-1.778;2024-02-28T09:10:33;11.35;;;4.25;;
22308;SDS011;11322;50.858;-1.778;2024-02-28T09:15:34;10.25;;;4.2;;
22308;SDS011;11322;50.858;-1.778;2024-02-28T09:20:33;14.1;;;4.35;;
22308;SDS011;11322;50.858;-1.778;2024-02-28T09:25:33;11.85;;;3.75;;
22308;SDS011;11322;50.858;-1.778;2024-02-28T09:30:33;16.9;;;5.7;;
22308;SDS011;11322;50.858;-1.778;2024-02-28T09:35:33;13.3;;;4.65;;
22308;SDS011;11322;50.858;-1.778;2024-02-28T09:40:33;13.8;;;4.65;;
22308;SDS011;11322;50.858;-1.778;2024-02-28T09:45:33;16.95;;;5.2;;
22308;SDS011;11322;50.858;-1.778;2024-02-28T09:50:33;11.0;;;4.15;;
22308;SDS011;11322;50.858;-1.778;2024-02-28T09:55:33;16.3;;;5.35;;
22308;SDS011;11322;50.858;-1.778;2024-02-28T10:00:33;11.9;;;3.8;;
22308;SDS011;11322;50.858;-1.778;2024-02-28T10:05:33;16.9;;;4.9;;
22308;SDS011;11322;50.858;-1.778;2024-02-28T10:10:33;8.35;;;4.1;;
22308;SDS011;11322;50.858;-1.778;2024-02-28T10:15:33;8.8;;;3.7;;
22308;SDS011;11322;50.858;-1.778;2024-02-28T10:20:33;6.5;;;3.2;;
22308;SDS011;11322;50.858;-1.778;2024-02-28T10:25:33;11.75;;;3.05;;
22308;SDS011;11322;50.858;-1.778;2024-02-28T10:30:38;11.85;;;3.55;;
22308;SDS011;11322;50.858;-1.778;2024-02-28T10:35:33;18.2;;;3.5;;
22308;SDS011;11322;50.858;-1.778;2024-02-28T10:40:33;7.35;;;3.9;;
22308;SDS011;11322;50.858;-1.778;2024-02-28T10:45:33;5.7;;;2.2;;
22308;SDS011;11322;50.858;-1.778;2024-02-28T10:50:33;11.05;;;3.1;;
22308;SDS011;11322;50.858;-1.778;2024-02-28T10:55:33;9.35;;;2.25;;
22308;SDS011;11322;50.858;-1.778;2024-02-28T11:00:33;11.05;;;2.3;;
22308;SDS011;11322;50.858;-1.778;2024-02-28T11:05:35;8.65;;;1.95;;
22308;SDS011;11322;50.858;-1.778;2024-02-28T11:10:33;11.5;;;2.1;;
22308;SDS011;11322;50.858;-1.778;2024-02-28T11:15:33;14.0;;;2.5;;
22308;SDS011;11322;50.858;-1.778;2024-02-28T11:20:33;8.15;;;1.7;;
22308;SDS011;11322;50.858;-1.778;2024-02-28T11:25:33;11.85;;;2.25;;
22308;SDS011;11322;50.858;-1.778;2024-02-28T11:30:33;10.0;;;2.15;;
22308;SDS011;11322;50.858;-1.778;2024-02-28T11:35:33;9.65;;;1.7;;
22308;SDS011;11322;50.858;-1.778;2024-02-28T11:40:33;8.05;;;1.85;;
22308;SDS011;11322;50.858;-1.778;2024-02-28T11:45:38;7.35;;;1.9;;
22308;SDS011;11322;50.858;-1.778;2024-02-28T11:50:33;4.95;;;1.45;;
22308;SDS011;11322;50.858;-1.778;2024-02-28T11:55:33;11.85;;;1.65;;
22308;SDS011;11322;50.858;-1.778;2024-02-28T12:00:33;10.2;;;2.0;;
22308;SDS011;11322;50.858;-1.778;2024-02-28T12:05:34;16.5;;;2.4;;
22308;SDS011;11322;50.858;-1.778;2024-02-28T12:11:41;20.75;;;3.7;;
22308;SDS011;11322;50.858;-1.778;2024-02-28T12:15:33;12.25;;;2.3;;
22308;SDS011;11322;50.858;-1.778;2024-02-28T12:20:33;11.35;;;2.6;;
22308;SDS011;11322;50.858;-1.778;2024-02-28T12:25:34;11.9;;;3.15;;
22308;SDS011;11322;50.858;-1.778;2024-02-28T12:30:39;20.05;;;3.8;;
22308;SDS011;11322;50.858;-1.778;2024-02-28T12:35:34;13.6;;;2.75;;
22308;SDS011;11322;50.858;-1.778;2024-02-28T12:40:33;17.45;;;4.15;;
22308;SDS011;11322;50.858;-1.778;2024-02-28T12:45:33;13.3;;;2.65;;
22308;SDS011;11322;50.858;-1.778;2024-02-28T12:50:33;15.1;;;2.85;;
22308;SDS011;11322;50.858;-1.778;2024-02-28T12:55:33;10.75;;;2.5;;
22308;SDS011;11322;50.858;-1.778;2024-02-28T13:00:33;11.0;;;3.65;;
22308;SDS011;11322;50.858;-1.778;2024-02-28T13:05:33;4.9;;;1.4;;
22308;SDS011;11322;50.858;-1.778;2024-02-28T13:10:33;8.65;;;1.9;;
22308;SDS011;11322;50.858;-1.778;2024-02-28T13:15:33;11.65;;;3.45;;
22308;SDS011;11322;50.858;-1.778;2024-02-28T13:20:33;10.9;;;2.3;;
22308;SDS011;11322;50.858;-1.778;2024-02-28T13:25:33;18.25;;;2.35;;
22308;SDS011;11322;50.858;-1.778;2024-02-28T13:30:33;14.5;;;2.75;;
22308;SDS011;11322;50.858;-1.778;2024-02-28T13:35:34;15.35;;;2.45;;
22308;SDS011;11322;50.858;-1.778;2024-02-28T13:40:33;6.05;;;1.55;;
22308;SDS011;11322;50.858;-1.778;2024-02-28T13:45:33;6.45;;;2.05;;
22308;SDS011;11322;50.858;-1.778;2024-02-28T13:50:33;6.55;;;1.65;;
22308;SDS011;11322;50.858;-1.778;2024-02-28T13:55:33;5.55;;;1.8;;
22308;SDS011;11322;50.858;-1.778;2024-02-28T14:00:33;5.3;;;1.55;;
22308;SDS011;11322;50.858;-1.778;2024-02-28T14:05:33;5.2;;;1.8;;
22308;SDS011;11322;50.858;-1.778;2024-02-28T14:10:33;2.15;;;1.7;;
22308;SDS011;11322;50.858;-1.778;2024-02-28T14:15:33;4.7;;;1.35;;
22308;SDS011;11322;50.858;-1.778;2024-02-28T14:20:33;3.35;;;1.0;;
22308;SDS011;11322;50.858;-1.778;2024-02-28T14:25:33;1.5;;;1.0;;
22308;SDS011;11322;50.858;-1.778;2024-02-28T14:30:33;2.05;;;1.35;;
22308;SDS011;11322;50.858;-1.778;2024-02-28T14:35:33;1.7;;;1.15;;
22308;SDS011;11322;50.858;-1.778;2024-02-28T14:40:33;4.1;;;1.45;;
22308;SDS011;11322;50.858;-1.778;2024-02-28T14:45:33;1.3;;;1.1;;
22308;SDS011;11322;50.858;-1.778;2024-02-28T14:50:33;0.85;;;0.7;;
22308;SDS011;11322;50.858;-1.778;2024-02-28T14:55:33;3.5;;;1.4;;
22308;SDS011;11322;50.858;-1.778;2024-02-28T15:00:33;1.6;;;0.6;;
22308;SDS011;11322;50.858;-1.778;2024-02-28T15:05:33;0.7;;;0.65;;
22308;SDS011;11322;50.858;-1.778;2024-02-28T15:10:33;2.35;;;0.8;;
22308;SDS011;11322;50.858;-1.778;2024-02-28T15:15:33;1.1;;;0.8;;
22308;SDS011;11322;50.858;-1.778;2024-02-28T15:20:33;1.55;;;0.7;;
22308;SDS011;11322;50.858;-1.778;2024-02-28T15:25:33;1.2;;;0.7;;
22308;SDS011;11322;50.858;-1.778;2024-02-28T15:30:33;1.85;;;1.0;;
22308;SDS011;11322;50.858;-1.778;2024-02-28T15:35:33;1.55;;;1.0;;
22308;SDS011;11322;50.858;-1.778;2024-02-28T15:40:33;2.35;;;1.2;;
22308;SDS011;11322;50.858;-1.778;2024-02-28T15:45:33;0.75;;;0.75;;
22308;SDS011;11322;50.858;-1.778;2024-02-28T15:50:33;2.4;;;0.9;;
22308;SDS011;11322;50.858;-1.778;2024-02-28T15:55:33;1.15;;;0.75;;
22308;SDS011;11322;50.858;-1.778;2024-02-28T16:00:33;2.0;;;1.2;;
22308;SDS011;11322;50.858;-1.778;2024-02-28T16:05:33;3.7;;;2.5;;
22308;SDS011;11322;50.858;-1.778;2024-02-28T16:10:33;1.15;;;0.8;;
22308;SDS011;11322;50.858;-1.778;2024-02-28T16:15:33;2.0;;;0.6;;
22308;SDS011;11322;50.858;-1.778;2024-02-28T16:20:33;2.45;;;1.3;;
22308;SDS011;11322;50.858;-1.778;2024-02-28T16:25:33;2.95;;;1.2;;
22308;SDS011;11322;50.858;-1.778;2024-02-28T16:30:33;3.95;;;1.4;;
22308;SDS011;11322;50.858;-1.778;2024-02-28T16:35:33;1.35;;;1.2;;
22308;SDS011;11322;50.858;-1.778;2024-02-28T16:40:33;3.45;;;1.25;;
22308;SDS011;11322;50.858;-1.778;2024-02-28T16:45:33;6.85;;;1.2;;
22308;SDS011;11322;50.858;-1.778;2024-02-28T16:50:33;2.4;;;1.3;;
22308;SDS011;11322;50.858;-1.778;2024-02-28T16:55:33;2.65;;;1.7;;
22308;SDS011;11322;50.858;-1.778;2024-02-28T17:00:33;4.75;;;2.05;;
22308;SDS011;11322;50.858;-1.778;2024-02-28T17:05:33;4.95;;;2.05;;
22308;SDS011;11322;50.858;-1.778;2024-02-28T17:10:33;2.75;;;1.5;;
22308;SDS011;11322;50.858;-1.778;2024-02-28T17:15:33;4.3;;;1.25;;
22308;SDS011;11322;50.858;-1.778;2024-02-28T17:20:33;3.2;;;2.25;;
22308;SDS011;11322;50.858;-1.778;2024-02-28T17:25:33;4.95;;;2.4;;
22308;SDS011;11322;50.858;-1.778;2024-02-28T17:30:33;4.2;;;2.2;;
22308;SDS011;11322;50.858;-1.778;2024-02-28T17:35:33;4.0;;;2.0;;
22308;SDS011;11322;50.858;-1.778;2024-02-28T17:40:33;2.6;;;1.4;;
22308;SDS011;11322;50.858;-1.778;2024-02-28T17:45:33;7.65;;;2.65;;
22308;SDS011;11322;50.858;-1.778;2024-02-28T17:50:33;4.85;;;2.2;;
22308;SDS011;11322;50.858;-1.778;2024-02-28T17:55:33;4.9;;;1.9;;
22308;SDS011;11322;50.858;-1.778;2024-02-28T18:00:33;2.95;;;1.8;;
22308;SDS011;11322;50.858;-1.778;2024-02-28T18:05:33;5.9;;;1.7;;
22308;SDS011;11322;50.858;-1.778;2024-02-28T18:10:33;3.95;;;1.9;;
22308;SDS011;11322;50.858;-1.778;2024-02-28T18:15:33;7.55;;;1.9;;
22308;SDS011;11322;50.858;-1.778;2024-02-28T18:20:33;1.6;;;1.1;;
22308;SDS011;11322;50.858;-1.778;2024-02-28T18:25:33;4.9;;;1.45;;
22308;SDS011;11322;50.858;-1.778;2024-02-28T18:30:33;3.25;;;2.0;;
22308;SDS011;11322;50.858;-1.778;2024-02-28T18:35:33;2.0;;;1.2;;
22308;SDS011;11322;50.858;-1.778;2024-02-28T18:41:44;4.8;;;1.35;;
22308;SDS011;11322;50.858;-1.778;2024-02-28T18:45:33;3.2;;;2.35;;
22308;SDS011;11322;50.858;-1.778;2024-02-28T18:50:33;2.75;;;2.0;;
22308;SDS011;11322;50.858;-1.778;2024-02-28T18:55:33;6.8;;;2.7;;
22308;SDS011;11322;50.858;-1.778;2024-02-28T19:00:34;5.7;;;2.2;;
22308;SDS011;11322;50.858;-1.778;2024-02-28T19:05:33;5.8;;;2.2;;
22308;SDS011;11322;50.858;-1.778;2024-02-28T19:10:33;4.85;;;2.55;;
22308;SDS011;11322;50.858;-1.778;2024-02-28T19:15:33;6.85;;;2.9;;
22308;SDS011;11322;50.858;-1.778;2024-02-28T19:20:33;9.75;;;3.6;;
22308;SDS011;11322;50.858;-1.778;2024-02-28T19:25:33;11.6;;;4.1;;
22308;SDS011;11322;50.858;-1.778;2024-02-28T19:30:33;9.5;;;4.1;;
22308;SDS011;11322;50.858;-1.778;2024-02-28T19:35:33;9.25;;;3.7;;
22308;SDS011;11322;50.858;-1.778;2024-02-28T19:40:33;7.1;;;3.65;;
22308;SDS011;11322;50.858;-1.778;2024-02-28T19:45:33;10.05;;;3.4;;
22308;SDS011;11322;50.858;-1.778;2024-02-28T19:50:33;9.9;;;3.8;;
22308;SDS011;11322;50.858;-1.778;2024-02-28T19:55:33;8.25;;;3.5;;
22308;SDS011;11322;50.858;-1.778;2024-02-28T20:00:33;6.55;;;2.4;;
22308;SDS011;11322;50.858;-1.778;2024-02-28T20:05:33;11.2;;;3.9;;
22308;SDS011;11322;50.858;-1.778;2024-02-28T20:10:33;12.05;;;4.05;;
22308;SDS011;11322;50.858;-1.778;2024-02-28T20:15:33;11.95;;;4.4;;
22308;SDS011;11322;50.858;-1.778;2024-02-28T20:20:33;6.25;;;1.8;;
22308;SDS011;11322;50.858;-1.778;2024-02-28T20:25:33;10.55;;;4.05;;
22308;SDS011;11322;50.858;-1.778;2024-02-28T20:30:33;9.55;;;4.3;;
22308;SDS011;11322;50.858;-1.778;2024-02-28T20:35:33;10.35;;;3.05;;
22308;SDS011;11322;50.858;-1.778;2024-02-28T20:40:33;7.05;;;2.85;;
22308;SDS011;11322;50.858;-1.778;2024-02-28T20:45:33;7.1;;;2.8;;
22308;SDS011;11322;50.858;-1.778;2024-02-28T20:50:33;10.1;;;1.85;;
22308;SDS011;11322;50.858;-1.778;2024-02-28T20:55:33;3.95;;;1.85;;
22308;SDS011;11322;50.858;-1.778;2024-02-28T21:00:33;9.75;;;4.2;;
22308;SDS011;11322;50.858;-1.778;2024-02-28T21:05:33;4.9;;;2.45;;
22308;SDS011;11322;50.858;-1.778;2024-02-28T21:10:33;13.55;;;3.75;;
22308;SDS011;11322;50.858;-1.778;2024-02-28T21:15:33;13.9;;;3.4;;
22308;SDS011;11322;50.858;-1.778;2024-02-28T21:20:33;7.4;;;2.35;;
22308;SDS011;11322;50.858;-1.778;2024-02-28T21:25:33;12.45;;;4.15;;
22308;SDS011;11322;50.858;-1.778;2024-02-28T21:30:38;13.6;;;2.35;;
22308;SDS011;11322;50.858;-1.778;2024-02-28T21:35:33;1.85;;;1.4;;
22308;SDS011;11322;50.858;-1.778;2024-02-28T21:40:33;9.8;;;2.85;;
22308;SDS011;11322;50.858;-1.778;2024-02-28T21:45:33;11.95;;;2.9;;
22308;SDS011;11322;50.858;-1.778;2024-02-28T21:50:33;7.35;;;2.2;;
22308;SDS011;11322;50.858;-1.778;2024-02-28T21:55:33;10.5;;;2.8;;
22308;SDS011;11322;50.858;-1.778;2024-02-28T22:00:33;9.8;;;2.15;;
22308;SDS011;11322;50.858;-1.778;2024-02-28T22:05:33;6.95;;;1.4;;
22308;SDS011;11322;50.858;-1.778;2024-02-28T22:10:33;13.85;;;2.75;;
22308;SDS011;11322;50.858;-1.778;2024-02-28T22:15:33;13.3;;;2.95;;
22308;SDS011;11322;50.858;-1.778;2024-02-28T22:20:33;11.35;;;2.5;;
22308;SDS011;11322;50.858;-1.778;2024-02-28T22:25:33;11.05;;;1.85;;
22308;SDS011;11322;50.858;-1.778;2024-02-28T22:30:33;4.9;;;0.9;;
22308;SDS011;11322;50.858;-1.778;2024-02-28T22:35:33;7.4;;;1.5;;
22308;SDS011;11322;50.858;-1.778;2024-02-28T22:40:33;8.05;;;1.4;;
22308;SDS011;11322;50.858;-1.778;2024-02-28T22:45:33;7.2;;;1.5;;
22308;SDS011;11322;50.858;-1.778;2024-02-28T22:50:33;3.45;;;1.15;;
22308;SDS011;11322;50.858;-1.778;2024-02-28T22:55:33;13.15;;;1.7;;
22308;SDS011;11322;50.858;-1.778;2024-02-28T23:00:33;7.05;;;1.3;;
22308;SDS011;11322;50.858;-1.778;2024-02-28T23:05:33;5.75;;;0.85;;
22308;SDS011;11322;50.858;-1.778;2024-02-28T23:10:33;13.05;;;1.4;;
22308;SDS011;11322;50.858;-1.778;2024-02-28T23:15:33;5.75;;;1.05;;
22308;SDS011;11322;50.858;-1.778;2024-02-28T23:20:33;9.15;;;1.95;;
22308;SDS011;11322;50.858;-1.778;2024-02-28T23:25:33;1.85;;;0.75;;
22308;SDS011;11322;50.858;-1.778;2024-02-28T23:30:33;3.0;;;1.1;;
22308;SDS011;11322;50.858;-1.778;2024-02-28T23:35:33;3.0;;;1.9;;
22308;SDS011;11322;50.858;-1.778;2024-02-28T23:40:33;8.25;;;1.15;;
22308;SDS011;11322;50.858;-1.778;2024-02-28T23:45:33;4.45;;;0.75;;
22308;SDS011;11322;50.858;-1.778;2024-02-28T23:50:33;7.6;;;1.1;;
22308;SDS011;11322;50.858;-1.778;2024-02-28T23:55:33;14.85;;;1.8;;
